Time;durP1;ratioP1;P1;durP2;ratioP2;P2;SDS_P1;SDS_P2;PMS_P1;PMS_P2;Temp;Humidity;BMP_temperature;BMP_pressure;BME280_temperature;BME280_humidity;BME280_pressure;Samples;Min_cycle;Max_cycle;Signal;HPM_P1;HPM_P2
2022/02/04 00:24:46;;;;;;;25.67;17.73;;;7.70;99.90;;;;;;5076224;28;20204;-60
2022/02/04 00:27:19;;;;;;;26.13;16.33;;;7.70;99.90;;;;;;5063030;28;20214;-60
2022/02/04 00:30:06;;;;;;;25.07;16.30;;;7.70;99.90;;;;;;5058326;28;20223;-60
2022/02/04 00:32:35;;;;;;;24.57;16.03;;;7.70;99.90;;;;;;5079418;28;20202;-59
2022/02/04 00:38:03;;;;;;;23.60;15.00;;;7.70;99.90;;;;;;5079105;28;20199;-60
2022/02/04 00:40:35;;;;;;;19.23;13.20;;;7.70;99.90;;;;;;5056677;28;20200;-59
2022/02/04 00:43:05;;;;;;;21.97;14.47;;;7.70;99.90;;;;;;5075501;28;20209;-60
2022/02/04 00:45:45;;;;;;;20.03;13.43;;;7.80;99.90;;;;;;5073791;28;20212;-61
2022/02/04 00:48:48;;;;;;;22.63;14.00;;;7.80;99.90;;;;;;5075518;28;20249;-60
2022/02/04 01:26:17;;;;;;;15.73;10.80;;;7.80;99.90;;;;;;5075354;28;20230;-59
2022/02/04 01:28:48;;;;;;;15.97;11.63;;;7.80;99.90;;;;;;5080341;28;20289;-59
2022/02/04 01:31:18;;;;;;;18.47;11.70;;;7.80;99.90;;;;;;5076462;28;20238;-60
2022/02/04 01:33:46;;;;;;;16.30;10.67;;;7.70;99.90;;;;;;5075546;28;20238;-59
2022/02/04 01:36:14;;;;;;;17.90;11.70;;;7.70;99.90;;;;;;5076730;28;20210;-59
2022/02/04 01:38:42;;;;;;;15.90;10.83;;;7.70;99.90;;;;;;5073222;28;20227;-60
2022/02/04 01:41:09;;;;;;;17.17;11.90;;;7.70;99.90;;;;;;5076503;28;20210;-60
2022/02/04 01:43:37;;;;;;;17.80;10.70;;;7.70;99.90;;;;;;5078073;28;20438;-60
2022/02/04 01:46:06;;;;;;;15.70;11.07;;;7.70;99.90;;;;;;5075598;28;20650;-60
2022/02/04 01:48:34;;;;;;;19.47;11.27;;;7.70;99.90;;;;;;5077568;28;20313;-60
2022/02/04 01:51:03;;;;;;;15.77;10.93;;;7.70;99.90;;;;;;5075679;28;20279;-58
2022/02/04 01:53:31;;;;;;;15.63;10.70;;;7.70;99.90;;;;;;5076065;28;20574;-60
2022/02/04 01:56:06;;;;;;;16.40;10.17;;;7.70;99.90;;;;;;5057157;28;20307;-62
2022/02/04 01:58:34;;;;;;;14.43;10.60;;;7.70;99.90;;;;;;5077162;28;20697;-62
2022/02/04 02:01:01;;;;;;;15.77;10.60;;;7.70;99.90;;;;;;5073992;28;20214;-60
2022/02/04 02:03:28;;;;;;;14.07;9.37;;;7.70;99.90;;;;;;5053681;28;20195;-60
2022/02/04 02:06:00;;;;;;;15.67;9.30;;;7.70;99.90;;;;;;5077576;28;20344;-58
2022/02/04 02:08:27;;;;;;;16.47;10.00;;;7.70;99.90;;;;;;5074765;28;20268;-60
2022/02/04 02:10:55;;;;;;;16.30;9.23;;;7.70;99.90;;;;;;5062066;28;20758;-60
2022/02/04 02:41:27;;;;;;;12.77;8.37;;;7.70;99.90;;;;;;5056209;28;20622;-61
2022/02/04 02:59:39;;;;;;;12.60;8.53;;;7.70;99.90;;;;;;5055582;28;20571;-59
2022/02/04 03:02:06;;;;;;;15.27;8.07;;;7.70;99.90;;;;;;5055046;28;20286;-60
2022/02/04 03:04:33;;;;;;;13.33;8.17;;;7.70;99.90;;;;;;5056548;28;20608;-59
2022/02/04 03:07:00;;;;;;;12.17;8.20;;;7.70;99.90;;;;;;5041056;28;20701;-60
2022/02/04 03:09:26;;;;;;;12.93;7.93;;;7.70;99.90;;;;;;5039405;28;20738;-60
2022/02/04 03:11:53;;;;;;;12.73;8.60;;;7.70;99.90;;;;;;5056296;28;20299;-60
2022/02/04 03:14:20;;;;;;;12.83;8.53;;;7.70;99.90;;;;;;5063136;28;20269;-59
2022/02/04 03:16:47;;;;;;;11.83;7.40;;;7.70;99.90;;;;;;5059665;28;20290;-60
2022/02/04 03:19:14;;;;;;;10.43;6.87;;;7.70;99.90;;;;;;5061258;28;20222;-60
2022/02/04 03:21:45;;;;;;;12.17;7.73;;;7.70;99.90;;;;;;5053235;28;20191;-60
2022/02/04 03:24:16;;;;;;;11.10;7.60;;;7.70;99.90;;;;;;5058601;28;20226;-59
2022/02/04 03:26:53;;;;;;;12.57;7.83;;;7.70;99.90;;;;;;5058219;28;20294;-58
2022/02/04 03:29:31;;;;;;;10.57;7.30;;;7.70;99.90;;;;;;5056227;28;20234;-58
2022/02/04 03:32:06;;;;;;;11.90;7.53;;;7.70;99.90;;;;;;5060649;28;20316;-60
2022/02/04 03:34:33;;;;;;;11.87;6.53;;;7.70;99.90;;;;;;5057124;28;20261;-60
2022/02/04 03:37:00;;;;;;;10.97;6.93;;;7.70;99.90;;;;;;5038609;28;20282;-58
2022/02/04 03:39:27;;;;;;;10.93;6.60;;;7.70;99.90;;;;;;5056994;28;20278;-60
2022/02/04 03:41:54;;;;;;;11.17;6.50;;;7.70;99.90;;;;;;5058123;28;20243;-60
2022/02/04 03:44:20;;;;;;;9.43;6.87;;;7.70;99.90;;;;;;5032269;28;20679;-60
2022/02/04 03:46:47;;;;;;;10.63;6.43;;;7.70;99.90;;;;;;5057864;28;20553;-60
2022/02/04 03:49:14;;;;;;;10.03;6.60;;;7.70;99.90;;;;;;5056431;28;20655;-58
2022/02/04 03:51:41;;;;;;;9.40;6.73;;;7.70;99.90;;;;;;5043459;28;20698;-60
2022/02/04 03:54:08;;;;;;;9.30;6.97;;;7.70;99.90;;;;;;5057838;28;20219;-60
2022/02/04 03:56:34;;;;;;;10.40;6.27;;;7.70;99.90;;;;;;5057280;28;20655;-59
2022/02/04 03:59:01;;;;;;;12.73;7.00;;;7.70;99.90;;;;;;5057323;28;20766;-59
2022/02/04 04:01:28;;;;;;;7.83;6.07;;;7.70;99.90;;;;;;5055963;28;20642;-60
2022/02/04 04:03:55;;;;;;;9.83;5.83;;;7.70;99.90;;;;;;5056099;28;20286;-60
2022/02/04 04:06:22;;;;;;;8.97;6.27;;;7.70;99.90;;;;;;5057515;28;20207;-59
2022/02/04 04:08:53;;;;;;;8.40;5.67;;;7.70;99.90;;;;;;5057164;28;20683;-60
2022/02/04 04:11:20;;;;;;;8.63;5.27;;;7.70;99.90;;;;;;5077524;28;20713;-60
2022/02/04 04:13:47;;;;;;;8.17;5.70;;;7.70;99.90;;;;;;5063685;28;20207;-62
2022/02/04 04:16:15;;;;;;;7.07;5.17;;;7.70;99.90;;;;;;5074160;28;20666;-60
2022/02/04 04:18:42;;;;;;;8.53;5.30;;;7.70;99.90;;;;;;5077785;28;20599;-59
2022/02/04 04:21:09;;;;;;;10.27;6.07;;;7.70;99.90;;;;;;5074289;28;20228;-57
2022/02/04 04:23:36;;;;;;;10.17;5.57;;;7.70;99.90;;;;;;5073203;28;20204;-59
2022/02/04 04:26:03;;;;;;;9.17;5.63;;;7.70;99.90;;;;;;5056171;28;20206;-59
2022/02/04 04:28:29;;;;;;;9.17;4.70;;;7.70;99.90;;;;;;5075065;28;21905;-59
2022/02/04 04:30:56;;;;;;;8.07;5.10;;;7.70;99.90;;;;;;5072837;28;20249;-58
2022/02/04 04:33:23;;;;;;;7.53;4.47;;;7.70;99.90;;;;;;5077204;28;20288;-60
2022/02/04 04:35:50;;;;;;;7.53;5.13;;;7.70;99.90;;;;;;5071136;28;20219;-59
2022/02/04 05:30:23;;;;;;;4.67;2.90;;;7.90;99.90;;;;;;5075623;28;20214;-59
2022/02/04 05:32:50;;;;;;;3.93;2.93;;;7.90;99.90;;;;;;5058252;28;20217;-59
2022/02/04 05:35:20;;;;;;;3.67;3.03;;;8.00;99.90;;;;;;5059795;28;20214;-59
2022/02/04 05:37:49;;;;;;;5.13;3.20;;;8.00;99.90;;;;;;5057238;28;20206;-60
2022/02/04 05:40:19;;;;;;;4.60;2.70;;;8.00;99.90;;;;;;5075794;28;20567;-59
2022/02/04 05:43:01;;;;;;;7.77;2.97;;;8.00;99.90;;;;;;5077926;28;20207;-60
2022/02/04 05:45:32;;;;;;;4.83;2.80;;;8.00;99.90;;;;;;5057366;28;20198;-60
2022/02/04 05:48:04;;;;;;;7.30;2.67;;;8.00;99.90;;;;;;5060211;28;20207;-59
2022/02/04 05:50:53;;;;;;;3.87;2.50;;;8.10;99.90;;;;;;5074549;28;21259;-59
2022/02/04 05:53:26;;;;;;;6.73;3.13;;;8.10;99.90;;;;;;5072162;28;20248;-59
2022/02/04 05:56:04;;;;;;;4.67;2.70;;;8.10;99.90;;;;;;5075191;28;20226;-59
2022/02/04 05:58:50;;;;;;;3.30;2.77;;;8.10;99.90;;;;;;5076341;28;20200;-62
2022/02/04 06:09:47;;;;;;;4.60;2.73;;;8.10;99.90;;;;;;5073277;28;20226;-61
2022/02/04 06:23:14;;;;;;;4.77;3.20;;;8.10;99.90;;;;;;5074855;28;20297;-60
2022/02/04 06:25:44;;;;;;;3.90;2.90;;;8.00;99.90;;;;;;5075557;28;20235;-61
2022/02/04 06:28:13;;;;;;;4.57;2.90;;;8.00;99.90;;;;;;5075259;28;20301;-60
2022/02/04 06:30:40;;;;;;;4.60;2.90;;;8.00;99.90;;;;;;5069464;28;21660;-61
2022/02/04 06:33:07;;;;;;;3.80;3.07;;;8.00;99.90;;;;;;5074993;28;20198;-61
2022/02/04 06:35:35;;;;;;;5.23;3.10;;;8.00;99.90;;;;;;5074152;28;20298;-59
2022/02/04 06:38:02;;;;;;;5.50;3.30;;;7.90;99.90;;;;;;5076037;28;20230;-59
2022/02/04 06:40:29;;;;;;;3.87;3.20;;;7.90;99.90;;;;;;5060558;28;20190;-63
2022/02/04 06:42:56;;;;;;;3.33;3.03;;;7.90;99.90;;;;;;5057042;28;20235;-59
2022/02/04 06:45:23;;;;;;;4.67;3.40;;;7.80;99.90;;;;;;5073806;28;20615;-60
2022/02/04 06:47:50;;;;;;;4.57;3.60;;;7.80;99.90;;;;;;5075066;28;20203;-61
2022/02/04 06:50:17;;;;;;;5.50;3.60;;;7.80;99.90;;;;;;5071930;28;20235;-59
2022/02/04 06:52:44;;;;;;;5.27;4.10;;;7.80;99.90;;;;;;5075060;28;20341;-58
2022/02/04 06:55:11;;;;;;;7.57;4.13;;;7.80;99.90;;;;;;5071406;28;20225;-60
2022/02/04 06:57:44;;;;;;;5.57;4.10;;;7.80;99.90;;;;;;5074331;28;20190;-60
2022/02/04 07:00:12;;;;;;;7.53;5.07;;;7.70;99.90;;;;;;5072401;28;20727;-61
2022/02/04 07:02:39;;;;;;;6.23;4.03;;;7.80;99.90;;;;;;5074656;28;20227;-60
2022/02/04 07:05:12;;;;;;;6.73;4.13;;;7.80;99.90;;;;;;5072171;28;20257;-56
2022/02/04 07:07:42;;;;;;;4.87;4.00;;;7.70;99.90;;;;;;5074021;28;20666;-60
2022/02/04 07:10:23;;;;;;;4.83;3.80;;;7.70;99.90;;;;;;5051287;28;20234;-61
2022/02/04 07:13:00;;;;;;;5.40;4.37;;;7.70;99.90;;;;;;5065947;28;20203;-59
2022/02/04 07:15:47;;;;;;;5.97;4.40;;;7.80;99.90;;;;;;5059229;28;20206;-60
2022/02/04 07:20:59;;;;;;;4.83;3.83;;;7.80;99.90;;;;;;5076248;28;20313;-60
2022/02/04 07:23:33;;;;;;;5.07;4.20;;;7.70;99.90;;;;;;5075587;28;20205;-60
2022/02/04 07:26:00;;;;;;;4.97;4.13;;;7.70;99.90;;;;;;5075832;28;20238;-57
2022/02/04 07:28:27;;;;;;;4.50;3.47;;;7.70;99.90;;;;;;5059767;28;20252;-57
2022/02/04 07:30:55;;;;;;;6.07;4.57;;;7.70;99.90;;;;;;5056813;28;20212;-59
2022/02/04 07:33:35;;;;;;;4.37;3.87;;;7.70;99.90;;;;;;5076716;28;20214;-60
2022/02/04 07:40:53;;;;;;;8.10;4.43;;;7.70;99.90;;;;;;5077833;28;20240;-61
2022/02/04 07:41:40;;;;;;;6.60;4.40;;;7.70;99.90;;;;;;5073919;28;20305;-60
2022/02/04 07:44:07;;;;;;;6.57;4.60;;;7.70;99.90;;;;;;5074841;28;20210;-60
2022/02/04 07:46:37;;;;;;;7.60;4.40;;;7.70;99.90;;;;;;5077409;28;20899;-57
2022/02/04 07:49:04;;;;;;;7.13;4.80;;;7.70;99.90;;;;;;5075320;28;20199;-58
2022/02/04 07:51:31;;;;;;;6.77;4.70;;;7.70;99.90;;;;;;5056961;28;20259;-56
2022/02/04 07:53:58;;;;;;;7.07;4.77;;;7.70;99.90;;;;;;5064106;28;20595;-59
2022/02/04 07:56:25;;;;;;;7.20;5.13;;;7.80;99.90;;;;;;5067379;28;20219;-59
2022/02/04 07:58:56;;;;;;;8.07;5.33;;;7.80;99.90;;;;;;5084262;28;20203;-61
2022/02/04 08:01:30;;;;;;;7.60;5.90;;;7.80;99.90;;;;;;5074587;28;20190;-60
2022/02/04 08:04:14;;;;;;;7.67;5.77;;;7.80;99.90;;;;;;5058712;28;20719;-59
2022/02/04 08:06:47;;;;;;;8.80;5.63;;;7.80;99.90;;;;;;5080613;28;20222;-58
2022/02/04 08:09:27;;;;;;;9.33;6.17;;;7.90;99.90;;;;;;5079498;28;20288;-58
2022/02/04 08:25:17;;;;;;;8.30;5.87;;;8.00;99.90;;;;;;5075251;28;20741;-59
2022/02/04 08:30:42;;;;;;;7.80;5.83;;;7.90;99.90;;;;;;5080077;28;20234;-60
2022/02/04 08:46:51;;;;;;;9.80;7.10;;;7.70;99.90;;;;;;5076183;28;20298;-57
2022/02/04 08:49:53;;;;;;;8.77;6.83;;;7.70;99.90;;;;;;5077376;28;20687;-60
2022/02/04 08:55:10;;;;;;;9.87;7.10;;;7.60;99.90;;;;;;5070064;28;20224;-58
2022/02/04 09:03:01;;;;;;;9.43;6.77;;;7.60;99.90;;;;;;5079156;28;20198;-58
2022/02/04 09:05:40;;;;;;;7.90;6.07;;;7.60;99.90;;;;;;5053542;28;20198;-59
2022/02/04 09:10:37;;;;;;;7.77;6.40;;;7.60;99.90;;;;;;5067320;28;20320;-58
2022/02/04 09:18:36;;;;;;;8.67;6.57;;;7.70;99.90;;;;;;5061040;28;20273;-66
2022/02/04 09:23:34;;;;;;;7.53;6.03;;;7.80;99.90;;;;;;5062570;28;20203;-65
2022/02/04 09:26:06;;;;;;;9.03;6.57;;;7.80;99.90;;;;;;5056631;28;20250;-62
2022/02/04 09:28:34;;;;;;;7.23;5.97;;;7.90;99.90;;;;;;5064631;28;20199;-67
2022/02/04 09:31:01;;;;;;;6.13;5.30;;;7.90;99.90;;;;;;5062327;28;20210;-63
2022/02/04 09:33:28;;;;;;;6.90;5.53;;;7.90;99.90;;;;;;5062481;28;20230;-57
2022/02/04 09:35:54;;;;;;;7.13;5.63;;;7.90;99.90;;;;;;5068328;28;20218;-64
2022/02/04 09:38:21;;;;;;;6.40;5.50;;;8.00;99.90;;;;;;5068982;28;20206;-64
2022/02/04 09:40:50;;;;;;;7.07;5.57;;;8.00;99.90;;;;;;5053386;28;20202;-63
2022/02/04 09:43:17;;;;;;;6.97;5.90;;;7.90;99.90;;;;;;5069940;28;20251;-61
2022/02/04 09:45:45;;;;;;;7.07;5.63;;;7.90;99.90;;;;;;5051853;28;20383;-62
2022/02/04 09:48:13;;;;;;;6.10;5.50;;;7.90;99.90;;;;;;5093174;28;20251;-63
2022/02/04 09:50:45;;;;;;;6.63;5.93;;;7.80;99.90;;;;;;5091488;28;20222;-65
2022/02/04 10:16:13;;;;;;;5.67;4.43;;;8.00;99.90;;;;;;5076244;28;20249;-63
2022/02/04 10:18:49;;;;;;;5.93;4.77;;;8.00;99.90;;;;;;5078903;28;20302;-63
2022/02/04 10:21:16;;;;;;;5.23;4.20;;;8.00;99.90;;;;;;5054840;28;20199;-63
2022/02/04 10:23:45;;;;;;;4.63;4.13;;;8.00;99.90;;;;;;5072990;28;20212;-63
2022/02/04 10:26:12;;;;;;;6.67;4.03;;;8.10;99.90;;;;;;5068911;28;20681;-62
2022/02/04 10:28:40;;;;;;;5.23;4.20;;;8.10;99.90;;;;;;5054137;28;20210;-61
2022/02/04 10:31:16;;;;;;;4.77;4.37;;;8.10;99.90;;;;;;5039313;28;20226;-61
2022/02/04 10:34:10;;;;;;;4.30;3.60;;;8.10;99.90;;;;;;5076431;28;21859;-62
2022/02/04 10:36:58;;;;;;;4.50;3.60;;;8.10;99.90;;;;;;5079388;28;20712;-63
2022/02/04 10:48:18;;;;;;;4.80;4.03;;;8.20;99.90;;;;;;5074397;28;20243;-63
2022/02/04 10:53:48;;;;;;;4.63;4.20;;;8.20;99.90;;;;;;5075471;28;20207;-62
2022/02/04 11:04:48;;;;;;;5.07;4.57;;;8.30;99.90;;;;;;5044037;28;20204;-64
2022/02/04 11:34:58;;;;;;;4.20;3.10;;;8.70;99.90;;;;;;5074879;28;20200;-64
2022/02/04 11:52:43;;;;;;;3.10;2.17;;;8.80;99.90;;;;;;5071410;28;20238;-64
2022/02/04 11:55:10;;;;;;;4.97;2.40;;;8.80;99.90;;;;;;5069954;28;20277;-58
2022/02/04 11:57:59;;;;;;;2.60;2.30;;;8.90;99.90;;;;;;5073450;28;21944;-60
2022/02/04 12:00:30;;;;;;;2.63;2.30;;;8.90;99.90;;;;;;5067968;28;20225;-60
2022/02/04 12:02:57;;;;;;;4.00;1.90;;;8.90;99.90;;;;;;5070713;28;20199;-59
2022/02/04 12:05:24;;;;;;;3.17;2.33;;;9.00;99.90;;;;;;5066783;28;20283;-59
2022/02/04 12:08:10;;;;;;;3.23;2.03;;;9.00;99.90;;;;;;5071308;28;20303;-60
2022/02/04 12:10:42;;;;;;;2.77;2.17;;;9.00;99.90;;;;;;5057347;28;20648;-61
2022/02/04 12:13:11;;;;;;;3.10;1.93;;;9.10;99.90;;;;;;5080738;28;20377;-61
2022/02/04 12:16:05;;;;;;;3.73;2.03;;;9.10;99.90;;;;;;5075387;28;20208;-59
2022/02/04 12:18:37;;;;;;;2.07;1.80;;;9.20;99.90;;;;;;5080425;28;20261;-58
2022/02/04 12:21:04;;;;;;;2.40;1.63;;;9.30;99.90;;;;;;5067133;28;20225;-58
2022/02/04 12:23:32;;;;;;;2.23;1.63;;;9.30;99.90;;;;;;5075600;28;20883;-61
2022/02/04 12:26:13;;;;;;;2.23;2.00;;;9.30;99.90;;;;;;5077987;28;20211;-59
2022/02/04 12:28:55;;;;;;;2.03;1.83;;;9.30;99.90;;;;;;5072911;28;20198;-58
2022/02/04 12:31:32;;;;;;;2.13;1.70;;;9.30;99.90;;;;;;5072663;28;20198;-58
2022/02/04 12:34:03;;;;;;;2.13;1.60;;;9.30;99.90;;;;;;5074606;28;20828;-59
2022/02/04 12:36:31;;;;;;;3.33;2.07;;;9.30;99.90;;;;;;5072357;28;20211;-60
2022/02/04 12:39:01;;;;;;;1.77;1.63;;;9.30;99.90;;;;;;5076624;28;20533;-60
2022/02/04 12:41:36;;;;;;;1.83;1.73;;;9.30;99.90;;;;;;5051657;28;22090;-59
2022/02/04 12:44:05;;;;;;;3.13;1.90;;;9.40;99.90;;;;;;5072443;28;20293;-59
2022/02/04 12:46:33;;;;;;;3.60;2.27;;;9.30;99.90;;;;;;5069243;28;20742;-61
2022/02/04 12:49:01;;;;;;;3.20;1.80;;;9.30;99.90;;;;;;5050924;28;20377;-59
2022/02/04 12:54:25;;;;;;;2.27;1.90;;;9.30;99.90;;;;;;5068059;28;20351;-61
2022/02/04 13:00:33;;;;;;;3.03;2.27;;;9.30;99.90;;;;;;5062861;28;20209;-60
2022/02/04 13:03:09;;;;;;;5.37;2.47;;;9.30;99.90;;;;;;5018242;28;20549;-59
2022/02/04 13:11:08;;;;;;;2.40;1.90;;;9.30;99.90;;;;;;5071655;28;20254;-59
2022/02/04 13:16:09;;;;;;;3.13;2.53;;;9.40;99.90;;;;;;5076874;28;20221;-59
2022/02/04 13:18:36;;;;;;;5.63;2.13;;;9.30;99.90;;;;;;5075941;28;20208;-59
2022/02/04 13:21:04;;;;;;;3.50;2.30;;;9.40;99.90;;;;;;5079467;28;20202;-59
2022/02/04 13:23:32;;;;;;;2.63;2.40;;;9.30;99.90;;;;;;5062611;28;20267;-60
2022/02/04 13:26:02;;;;;;;3.70;2.43;;;9.30;99.90;;;;;;5081675;28;20198;-60
2022/02/04 13:28:33;;;;;;;3.67;2.60;;;9.30;99.90;;;;;;5075733;28;20222;-59
2022/02/04 13:31:22;;;;;;;4.90;2.10;;;9.20;99.90;;;;;;5069688;28;20230;-57
2022/02/04 13:33:52;;;;;;;4.70;2.93;;;9.10;99.90;;;;;;5077482;28;20215;-59
2022/02/04 13:39:03;;;;;;;4.13;2.30;;;8.90;99.90;;;;;;5078641;28;20205;-60
2022/02/04 13:52:03;;;;;;;4.70;3.07;;;8.50;99.90;;;;;;5076830;28;20214;-60
2022/02/04 14:00:17;;;;;;;5.30;3.67;;;8.30;99.90;;;;;;5071652;28;20210;-59
2022/02/04 14:02:48;;;;;;;4.80;3.00;;;8.30;99.90;;;;;;5070230;28;20208;-57
2022/02/04 14:05:27;;;;;;;6.80;3.60;;;8.30;99.90;;;;;;5069873;28;20227;-60
2022/02/04 14:08:10;;;;;;;5.93;3.13;;;8.20;99.90;;;;;;5077290;28;20230;-57
2022/02/04 14:10:53;;;;;;;4.40;3.50;;;8.20;99.90;;;;;;5053689;28;20260;-59
2022/02/04 14:13:26;;;;;;;3.57;2.70;;;8.20;99.90;;;;;;5055088;28;20206;-60
2022/02/04 14:15:59;;;;;;;4.57;3.37;;;8.10;99.90;;;;;;5071400;28;20279;-59
2022/02/04 14:18:28;;;;;;;3.90;3.07;;;8.10;99.90;;;;;;5074367;28;20231;-57
2022/02/04 14:20:55;;;;;;;5.53;3.27;;;8.10;99.90;;;;;;5079637;28;20711;-59
2022/02/04 14:23:23;;;;;;;3.57;3.10;;;8.10;99.90;;;;;;5077435;28;20305;-60
2022/02/04 14:26:18;;;;;;;4.97;3.03;;;8.10;99.90;;;;;;5078523;28;20206;-57
2022/02/04 14:31:39;;;;;;;5.53;2.90;;;8.10;99.90;;;;;;5064699;28;20222;-62
2022/02/04 14:51:07;;;;;;;1.90;0.90;;;7.10;99.90;;;;;;5070449;28;20289;-59
2022/02/04 14:58:55;;;;;;;3.37;0.90;;;6.60;99.90;;;;;;5067888;28;20867;-57
2022/02/04 15:01:25;;;;;;;0.67;0.57;;;6.20;99.90;;;;;;5064230;28;20341;-56
2022/02/04 15:04:02;;;;;;;1.40;0.80;;;6.00;99.90;;;;;;5068079;28;20241;-57
2022/02/04 15:06:36;;;;;;;0.47;0.47;;;5.90;99.90;;;;;;5063192;28;20207;-58
2022/02/04 15:09:07;;;;;;;1.80;0.67;;;5.80;99.90;;;;;;5065888;28;20735;-57
2022/02/04 15:11:36;;;;;;;0.87;0.50;;;5.80;99.90;;;;;;5076581;28;20607;-59
2022/02/04 15:14:08;;;;;;;0.67;0.60;;;5.70;99.90;;;;;;5074606;28;20213;-58
2022/02/04 15:16:35;;;;;;;1.60;0.40;;;5.70;99.90;;;;;;5083098;28;20206;-57
2022/02/04 15:19:04;;;;;;;0.40;0.40;;;5.70;99.90;;;;;;5077394;28;20261;-57
2022/02/04 15:21:32;;;;;;;0.60;0.60;;;5.70;99.90;;;;;;5077079;28;20301;-58
2022/02/04 15:24:00;;;;;;;2.83;0.80;;;5.70;99.90;;;;;;5078080;28;20211;-58
2022/02/04 15:26:29;;;;;;;1.00;0.90;;;5.90;99.90;;;;;;5077320;28;20195;-59
2022/02/04 15:29:04;;;;;;;1.60;1.17;;;5.90;99.90;;;;;;5077130;28;20217;-58
2022/02/04 15:34:07;;;;;;;1.83;1.20;;;5.80;99.90;;;;;;5077213;28;20216;-58
2022/02/04 15:36:44;;;;;;;1.13;1.03;;;5.80;99.90;;;;;;5071860;28;20243;-57
2022/02/04 15:39:18;;;;;;;1.37;1.00;;;5.70;99.90;;;;;;5078459;28;20231;-57
2022/02/04 15:41:47;;;;;;;1.20;1.07;;;5.60;99.90;;;;;;5073608;28;20309;-59
2022/02/04 15:44:24;;;;;;;2.60;0.90;;;5.60;99.90;;;;;;5075706;28;20197;-59
2022/02/04 15:57:15;;;;;;;1.80;1.10;;;5.70;99.90;;;;;;5066359;28;20217;-57
2022/02/04 16:02:42;;;;;;;1.10;0.80;;;5.70;99.90;;;;;;5068294;28;20708;-59
2022/02/04 16:05:11;;;;;;;3.57;1.03;;;5.70;99.90;;;;;;5056916;28;20191;-57
2022/02/04 16:07:39;;;;;;;1.60;1.40;;;5.60;99.90;;;;;;5072871;28;20634;-59
2022/02/04 16:10:31;;;;;;;1.87;1.53;;;5.60;99.90;;;;;;5070198;28;20266;-58
2022/02/04 16:13:11;;;;;;;1.07;0.90;;;5.70;99.90;;;;;;5073812;28;20208;-57
2022/02/04 16:15:53;;;;;;;1.57;1.30;;;5.70;99.90;;;;;;5072420;28;20203;-59
2022/02/04 16:18:25;;;;;;;1.03;0.97;;;5.70;99.90;;;;;;5063667;28;20264;-60
2022/02/04 16:21:05;;;;;;;1.43;1.10;;;5.50;99.90;;;;;;5066683;28;20757;-57
2022/02/04 16:23:46;;;;;;;4.93;1.77;;;5.50;99.90;;;;;;5061898;28;20928;-56
2022/02/04 16:28:58;;;;;;;0.97;0.93;;;5.50;99.90;;;;;;5075682;28;20201;-58
2022/02/04 16:31:26;;;;;;;2.20;1.10;;;5.50;99.90;;;;;;5065054;28;20203;-57
2022/02/04 16:33:52;;;;;;;3.33;1.50;;;5.50;99.90;;;;;;5068608;28;20216;-57
2022/02/04 16:36:22;;;;;;;2.70;1.17;;;5.60;99.90;;;;;;5066698;28;20275;-55
2022/02/04 16:38:55;;;;;;;3.20;1.83;;;5.50;99.90;;;;;;5068505;28;20215;-58
2022/02/04 16:41:31;;;;;;;3.30;1.73;;;5.40;99.90;;;;;;5073808;28;20204;-59
2022/02/04 16:43:58;;;;;;;1.20;0.80;;;5.40;99.90;;;;;;5071765;28;20320;-56
2022/02/04 16:46:26;;;;;;;1.77;1.30;;;5.40;99.90;;;;;;5070866;28;20204;-58
2022/02/04 16:48:52;;;;;;;3.27;2.30;;;5.40;99.90;;;;;;5066442;28;20222;-56
2022/02/04 16:51:19;;;;;;;3.27;1.50;;;5.50;99.90;;;;;;5072305;28;20228;-56
2022/02/04 16:53:46;;;;;;;3.20;1.00;;;5.60;99.90;;;;;;5073335;28;20611;-58
2022/02/04 16:56:13;;;;;;;2.30;1.20;;;5.70;99.90;;;;;;5071858;28;20288;-59
2022/02/04 16:58:40;;;;;;;3.17;0.87;;;5.60;99.90;;;;;;5073808;28;20225;-59
2022/02/04 17:01:07;;;;;;;1.47;0.90;;;5.60;99.90;;;;;;5067696;28;20198;-58
2022/02/04 17:03:34;;;;;;;1.57;0.70;;;5.60;99.90;;;;;;5075035;28;20508;-57
2022/02/04 17:06:03;;;;;;;1.23;0.97;;;5.60;99.90;;;;;;5071545;28;20602;-56
2022/02/04 17:08:34;;;;;;;2.00;0.80;;;5.70;99.90;;;;;;5079531;28;20570;-59
2022/02/04 17:11:06;;;;;;;2.43;1.07;;;5.70;99.90;;;;;;5071714;28;20298;-59
2022/02/04 17:13:34;;;;;;;3.50;1.10;;;5.70;99.90;;;;;;5076785;28;20206;-59
2022/02/04 17:16:01;;;;;;;4.53;1.33;;;5.70;99.90;;;;;;5067196;28;20239;-59
2022/02/04 17:18:28;;;;;;;0.90;0.70;;;5.70;99.90;;;;;;5076053;28;20238;-60
2022/02/04 17:20:55;;;;;;;4.00;1.47;;;5.50;99.90;;;;;;5052274;28;20396;-57
2022/02/04 17:23:29;;;;;;;2.00;0.90;;;5.30;99.90;;;;;;5070921;28;20203;-60
2022/02/04 17:25:58;;;;;;;4.87;1.50;;;5.30;99.90;;;;;;5069037;28;20263;-58
2022/02/04 17:28:30;;;;;;;8.10;0.90;;;5.40;99.90;;;;;;5073638;28;20230;-58
2022/02/04 17:30:58;;;;;;;3.50;1.00;;;5.30;99.90;;;;;;5070527;28;20739;-54
2022/02/04 17:33:27;;;;;;;1.87;1.30;;;5.20;99.90;;;;;;5054821;28;20218;-58
2022/02/04 17:35:56;;;;;;;4.17;1.47;;;5.30;99.90;;;;;;5069740;28;21839;-57
2022/02/04 17:38:27;;;;;;;5.10;1.20;;;5.30;99.90;;;;;;5068988;28;20702;-59
2022/02/04 17:40:58;;;;;;;6.17;1.33;;;5.30;99.90;;;;;;5071321;28;20653;-60
2022/02/04 17:43:25;;;;;;;3.50;1.10;;;5.30;99.90;;;;;;5075770;28;20329;-59
2022/02/04 17:45:52;;;;;;;3.50;1.50;;;5.40;99.90;;;;;;5082295;28;20203;-59
2022/02/04 17:48:26;;;;;;;8.10;1.50;;;5.40;99.90;;;;;;5081862;28;20511;-58
2022/02/04 17:51:14;;;;;;;2.53;1.20;;;5.40;99.90;;;;;;5081502;28;20609;-58
2022/02/04 17:53:53;;;;;;;10.40;2.17;;;5.40;99.90;;;;;;5079665;28;20203;-60
2022/02/04 17:59:45;;;;;;;3.33;1.30;;;5.20;99.90;;;;;;5082249;28;20229;-58
2022/02/04 18:02:03;;;;;;;3.27;1.83;;;5.20;99.90;;;;;;5080722;28;20702;-58
2022/02/04 18:07:22;;;;;;;4.03;1.00;;;5.00;99.90;;;;;;5083980;28;20254;-58
2022/02/04 18:09:49;;;;;;;4.47;1.20;;;5.00;99.90;;;;;;5081362;28;20230;-59
2022/02/04 18:12:24;;;;;;;4.87;1.60;;;4.90;99.90;;;;;;5083491;28;20666;-59
2022/02/04 18:14:52;;;;;;;5.70;1.37;;;4.80;99.90;;;;;;5065607;28;20208;-58
2022/02/04 18:17:20;;;;;;;17.07;1.80;;;4.80;99.90;;;;;;5063338;28;20237;-59
2022/02/04 18:19:47;;;;;;;4.30;1.50;;;4.80;99.90;;;;;;5082154;28;20610;-64
2022/02/04 18:22:14;;;;;;;4.47;1.60;;;4.80;99.90;;;;;;5083749;28;20212;-59
2022/02/04 18:24:42;;;;;;;3.87;1.50;;;4.90;99.90;;;;;;5082064;28;20659;-58
2022/02/04 18:27:14;;;;;;;5.63;1.50;;;4.90;99.90;;;;;;5082570;28;20663;-59
2022/02/04 18:29:47;;;;;;;6.60;1.63;;;4.80;99.90;;;;;;5079663;28;20207;-58
2022/02/04 18:32:14;;;;;;;10.43;1.77;;;4.80;99.90;;;;;;5067816;28;20339;-58
2022/02/04 18:34:41;;;;;;;10.83;1.80;;;4.80;99.90;;;;;;5084400;28;20214;-59
2022/02/04 18:37:07;;;;;;;2.90;1.60;;;4.80;99.90;;;;;;5081148;28;20602;-59
2022/02/04 18:45:09;;;;;;;4.17;2.10;;;4.90;99.90;;;;;;5082116;28;20199;-59
2022/02/04 18:47:50;;;;;;;4.40;2.00;;;5.00;99.90;;;;;;5084507;28;20571;-59
2022/02/04 18:58:12;;;;;;;7.50;2.73;;;4.90;99.90;;;;;;5082326;28;20202;-58
2022/02/04 19:00:39;;;;;;;5.30;2.70;;;4.90;99.90;;;;;;5056692;28;20208;-58
2022/02/04 19:03:13;;;;;;;6.00;2.57;;;4.90;99.90;;;;;;5060678;28;20259;-63
2022/02/04 19:05:47;;;;;;;9.63;2.47;;;4.90;99.90;;;;;;5082006;28;20208;-58
2022/02/04 19:08:21;;;;;;;8.23;2.80;;;5.00;99.90;;;;;;5080654;28;20238;-59
2022/02/04 19:10:49;;;;;;;4.20;2.23;;;5.00;99.90;;;;;;5064617;28;20295;-60
2022/02/04 19:13:23;;;;;;;6.50;2.60;;;5.00;99.90;;;;;;5073756;28;20238;-59
2022/02/04 19:16:20;;;;;;;8.23;2.93;;;5.00;99.90;;;;;;4351006;28;10000735;-62
2022/02/04 19:21:35;;;;;;;11.53;2.43;;;5.00;99.90;;;;;;5072215;28;20658;-56
2022/02/04 19:24:03;;;;;;;3.63;2.40;;;5.00;99.90;;;;;;5055014;28;20679;-59
2022/02/04 19:26:29;;;;;;;5.43;2.57;;;4.90;99.90;;;;;;5073266;28;20207;-59
2022/02/04 19:28:56;;;;;;;8.53;3.63;;;4.90;99.90;;;;;;5070896;28;20249;-54
2022/02/04 19:31:24;;;;;;;6.07;2.70;;;4.80;99.90;;;;;;5070076;28;20204;-55
2022/02/04 19:33:51;;;;;;;6.60;3.00;;;4.80;99.90;;;;;;5074305;28;20209;-57
2022/02/04 19:36:18;;;;;;;5.80;3.23;;;4.80;99.90;;;;;;5073912;28;20202;-60
2022/02/04 19:38:45;;;;;;;7.67;2.77;;;4.80;99.90;;;;;;5074104;28;20215;-56
2022/02/04 19:41:19;;;;;;;6.90;3.63;;;4.70;99.90;;;;;;5070895;28;20208;-55
2022/02/04 19:43:49;;;;;;;12.17;3.00;;;4.80;99.90;;;;;;5062791;28;20602;-56
2022/02/04 19:46:21;;;;;;;9.20;2.80;;;4.80;99.90;;;;;;5070596;28;20736;-56
2022/02/04 19:48:52;;;;;;;8.37;2.40;;;4.80;99.90;;;;;;5054131;28;20199;-57
2022/02/04 19:54:30;;;;;;;5.20;2.30;;;4.90;99.90;;;;;;5058276;28;20729;-57
2022/02/04 20:24:49;;;;;;;5.73;1.57;;;5.10;99.90;;;;;;5073731;28;20205;-58
2022/02/04 20:27:18;;;;;;;6.33;1.70;;;5.10;99.90;;;;;;5074551;28;20313;-58
2022/02/04 20:29:45;;;;;;;5.60;1.60;;;5.00;99.90;;;;;;5069507;28;20301;-58
2022/02/04 20:32:12;;;;;;;4.43;1.60;;;4.90;99.90;;;;;;5076985;28;20206;-58
2022/02/04 20:34:39;;;;;;;3.93;2.00;;;4.80;99.90;;;;;;5077926;28;20206;-57
2022/02/04 20:37:06;;;;;;;7.50;2.13;;;4.90;99.90;;;;;;5075804;28;20198;-58
2022/02/04 20:42:26;;;;;;;6.37;1.90;;;5.00;99.90;;;;;;5060003;28;20324;-58
2022/02/04 20:44:54;;;;;;;6.27;1.90;;;5.10;99.90;;;;;;5068621;28;20214;-58